Etusivu
METAR-TAF:

METAR-TAF

Lentoasemat :

Duluth, Minnesota, Yhdysvallat

Leveyspiiri: 46-50-34N, Pituuspiiri: 092-13-34W, korkeus merenpinnasta: 435 m

Tämänhetkinen sää

Tämä raportti tehtiin 47 minuuttia sitten, kello 16.55 UTC
Tuuli 6 kn luoteesta
Lämpötila 7°C
Kosteus 70%
Ilmanpaine 1018 hPa
Näkyvyys: 16.1 km
Pilvistä 1600 ft:n korkeudessa

METAR: KDLH 161655Z 31006KT 10SM OVC016 07/02 A3007 RMK AO2 SLP194 T00670022

Aika: 12:42 (17:42 UTC)

Sääennuste

Tämä raportti tehtiin 7 minuuttia sitten, kello 17.35 UTC
Ennuste voimassa 16. päivästä klo 18 UTC - 17. päivään klo 18 UTC
Tuuli 6 kn luoteesta
Näkyvyys: 10 km
Pilvistä 1900 ft:n korkeudessa
From 17. päivästä klo 0200 UTC
Tuuli 2 kn luoteesta
Näkyvyys: 10 km
Pilvistä 6000 ft:n korkeudessa
From 17. päivästä klo 0900 UTC
Tuuli 2 kn eri suunnista
Näkyvyys: 10 km
Hajonneita pilviä 2500 ft:n korkeudessa

TAF: KDLH 161735Z 1618/1718 31006KT P6SM OVC019 FM170200 32002KT P6SM OVC060 FM170900 VRB02KT P6SM BKN025

Säähavainnot ja -ennusteet yli 4000 lentoasemalta (METAR- ja TAF-raportit).

Käytössä olevat sääasemat on merkitty karttaan keltaisilla ja punaisilla pisteillä.

Aseta hiiri pisteen päälle nähdäksesi sääaseman nimen.

Klikkaa sitten nähdäksesi säähavainnot ja -ennusteet.

Kartan vaihtaminen: klikkaa mustalla rastilla varustettuja vihreitä pisteitä, niin voit zoomata sisään; viivalla varustettua vihreää pistettä, niin voit zoomata ulos tai vihreitä nuolia, niin pääset viereisille kartoille.


METAR-TAF: